createdAt,value
2017-09-23T03:01:08.842Z,99.90
2017-09-23T03:17:16.142Z,99.90
2017-09-23T03:19:46.319Z,99.90
2017-09-23T03:33:35.490Z,99.90
2017-09-23T03:47:10.455Z,99.90
2017-09-23T03:49:41.521Z,99.90
2017-09-23T03:57:30.610Z,99.90
2017-09-23T04:02:49.779Z,99.90
2017-09-23T04:05:22.539Z,99.90
2017-09-23T04:08:01.219Z,99.90
2017-09-23T04:13:20.231Z,99.90
2017-09-23T04:15:49.034Z,99.90
2017-09-23T04:18:21.970Z,99.90
2017-09-23T04:20:55.231Z,99.90
2017-09-23T04:23:25.606Z,99.90
2017-09-23T04:25:55.594Z,99.90
2017-09-23T04:28:28.116Z,99.90
2017-09-23T04:31:05.061Z,99.90
2017-09-23T04:39:00.342Z,99.90
2017-09-23T04:46:50.329Z,99.90
2017-09-23T04:52:17.569Z,99.90
2017-09-23T05:00:26.975Z,99.90
2017-09-23T05:03:00.313Z,99.90
2017-09-23T05:05:33.197Z,99.90
2017-09-23T05:08:02.597Z,99.90
2017-09-23T05:10:31.917Z,99.90
2017-09-23T05:13:03.288Z,99.90
2017-09-23T05:18:13.462Z,99.90
2017-09-23T05:20:43.627Z,99.90
2017-09-23T05:23:17.190Z,99.90
2017-09-23T05:25:49.669Z,99.90
2017-09-23T05:28:20.736Z,99.90
2017-09-23T05:30:55.789Z,99.90
2017-09-23T05:33:28.210Z,99.90
2017-09-23T05:38:31.215Z,99.90
2017-09-23T05:41:01.246Z,99.90
2017-09-23T05:43:31.611Z,99.90
2017-09-23T05:46:00.327Z,99.90
2017-09-23T05:48:32.313Z,99.90
2017-09-23T05:51:03.402Z,99.90
2017-09-23T05:53:33.698Z,99.90
2017-09-23T05:58:47.856Z,99.90
2017-09-23T11:31:54.644Z,34.10
2017-09-23T11:34:23.185Z,31.20
2017-09-23T11:36:52.466Z,32.00
2017-09-23T11:39:21.021Z,31.90
2017-09-23T11:41:54.384Z,29.70
2017-09-23T11:44:22.952Z,31.10
2017-09-23T11:46:51.488Z,30.30
2017-09-23T11:49:19.974Z,32.60
2017-09-23T11:51:48.482Z,30.30
2017-09-23T11:54:17.859Z,31.20
2017-09-23T11:56:46.320Z,33.20
2017-09-23T11:59:14.866Z,29.20
2017-09-23T12:01:43.606Z,31.90
2017-09-23T12:04:12.123Z,30.10
2017-09-23T12:06:40.701Z,30.20
2017-09-23T12:09:09.272Z,29.90
2017-09-23T12:11:37.826Z,31.80
2017-09-23T12:14:06.293Z,31.00
2017-09-23T12:16:35.521Z,32.40
2017-09-23T12:19:03.846Z,32.40
2017-09-23T12:21:32.326Z,34.80
2017-09-23T12:24:00.861Z,33.60
2017-09-23T12:26:29.323Z,32.60
2017-09-23T12:28:57.392Z,32.90
2017-09-23T12:31:26.845Z,32.60
2017-09-23T12:33:55.290Z,32.50
2017-09-23T12:36:23.737Z,32.20
2017-09-23T12:38:53.007Z,34.90
2017-09-23T12:41:21.482Z,35.00
2017-09-23T12:43:49.913Z,31.50
2017-09-23T12:46:19.133Z,32.60
2017-09-23T12:48:47.597Z,32.60
2017-09-23T12:51:16.807Z,36.30
2017-09-23T12:53:45.253Z,36.30
2017-09-23T12:56:13.771Z,35.20
2017-09-23T12:58:42.225Z,37.30
2017-09-23T13:01:10.698Z,34.20
2017-09-23T13:03:40.224Z,34.50
2017-09-23T13:06:09.425Z,35.80
2017-09-23T13:08:39.595Z,35.80
2017-09-23T13:11:08.078Z,35.70
2017-09-23T13:13:36.506Z,35.00
2017-09-23T13:16:05.014Z,36.10
2017-09-23T13:18:33.497Z,35.30
2017-09-23T13:21:02.585Z,37.00
2017-09-23T13:23:31.030Z,36.90
2017-09-23T13:25:59.289Z,37.40
2017-09-23T13:28:27.731Z,36.50
2017-09-23T13:30:56.138Z,36.60
2017-09-23T13:33:24.550Z,39.20
2017-09-23T13:35:53.023Z,36.40
2017-09-23T13:38:21.451Z,39.60
2017-09-23T13:40:49.865Z,38.10
2017-09-23T13:43:18.321Z,36.20
2017-09-23T13:45:46.777Z,39.00
2017-09-23T13:48:15.953Z,39.90
2017-09-23T13:50:44.377Z,39.90
2017-09-23T13:53:12.819Z,41.00
2017-09-23T13:55:41.229Z,40.40
2017-09-23T13:58:10.254Z,39.80
2017-09-23T14:00:38.706Z,39.80
2017-09-23T14:03:07.136Z,40.40
2017-09-23T14:05:35.574Z,42.20
2017-09-23T14:08:04.023Z,41.80
2017-09-23T14:10:32.453Z,41.90
2017-09-23T14:13:00.982Z,46.40
2017-09-23T14:15:29.464Z,42.70
2017-09-23T14:17:57.891Z,42.70
2017-09-23T14:20:26.384Z,44.40
2017-09-23T14:22:54.831Z,44.60
2017-09-23T14:25:24.127Z,44.60
2017-09-23T14:27:52.634Z,44.60
2017-09-23T14:30:21.161Z,45.00
2017-09-23T14:32:49.698Z,45.20
2017-09-23T14:35:18.206Z,46.60
2017-09-23T14:37:46.667Z,46.00
2017-09-23T14:40:15.143Z,46.10
2017-09-23T14:42:43.597Z,46.90
2017-09-23T14:45:12.030Z,48.30
2017-09-23T14:47:40.565Z,52.90
2017-09-23T14:50:09.831Z,54.40
2017-09-23T14:52:38.312Z,54.40
2017-09-23T14:55:06.776Z,55.10
2017-09-23T14:57:35.246Z,58.90
2017-09-23T15:00:03.548Z,56.10
2017-09-23T15:02:32.266Z,65.00
2017-09-23T15:05:00.773Z,65.60
2017-09-23T15:07:30.066Z,64.50
2017-09-23T15:09:58.558Z,64.50
2017-09-23T15:12:27.134Z,65.10
2017-09-23T15:14:56.342Z,65.90
2017-09-23T15:17:24.798Z,65.90
2017-09-23T15:19:53.133Z,63.50
2017-09-23T15:22:21.629Z,67.30
2017-09-23T15:24:50.101Z,68.20
2017-09-23T15:27:18.608Z,70.00
2017-09-23T15:29:47.061Z,70.50
2017-09-23T15:32:15.359Z,70.70
2017-09-23T15:34:43.633Z,73.70
2017-09-23T15:37:12.112Z,77.80
2017-09-23T15:39:40.410Z,81.50
2017-09-23T15:42:08.858Z,86.20
2017-09-23T15:44:38.159Z,90.00
2017-09-23T15:47:06.449Z,90.00
2017-09-23T15:49:34.934Z,92.20
2017-09-23T15:52:03.521Z,92.00
2017-09-23T15:54:32.605Z,96.60
2017-09-23T15:57:00.946Z,96.40
2017-09-23T15:59:29.543Z,99.90
2017-09-23T16:01:58.030Z,99.50
2017-09-23T16:04:26.607Z,99.90
2017-09-23T16:06:55.117Z,99.90
2017-09-23T16:09:23.563Z,99.90
2017-09-23T16:11:52.044Z,99.90
2017-09-23T16:14:20.571Z,99.90
2017-09-23T16:16:49.014Z,99.90
2017-09-23T16:19:17.498Z,99.90
2017-09-23T16:21:46.008Z,99.90
2017-09-23T16:24:14.496Z,99.90
2017-09-23T16:26:43.351Z,99.90
2017-09-23T16:29:12.573Z,99.90
2017-09-23T16:31:41.048Z,99.90
2017-09-23T16:34:09.517Z,99.90
2017-09-23T16:36:37.955Z,99.90
2017-09-23T16:39:06.409Z,99.90
2017-09-23T16:41:34.870Z,99.90
2017-09-23T16:44:03.328Z,99.90
2017-09-23T16:46:31.815Z,99.90
2017-09-23T16:49:00.324Z,99.90
2017-09-23T16:51:29.581Z,99.90
2017-09-23T16:53:58.043Z,99.90
2017-09-23T16:56:26.553Z,99.90
2017-09-23T16:58:55.027Z,99.90
2017-09-23T17:01:23.510Z,99.90
2017-09-23T17:03:52.819Z,99.90
2017-09-23T17:06:21.262Z,99.90
2017-09-23T17:08:49.737Z,99.90
2017-09-23T17:11:20.028Z,99.90
2017-09-23T17:13:48.748Z,99.90
2017-09-23T17:16:17.757Z,99.90
2017-09-23T17:18:46.653Z,99.90
2017-09-23T17:21:15.589Z,99.90
2017-09-23T17:23:44.543Z,99.90
2017-09-23T17:26:14.332Z,99.90
2017-09-23T17:28:44.010Z,99.90
2017-09-23T17:31:12.857Z,99.90
2017-09-23T17:33:42.430Z,99.90
2017-09-23T17:36:12.598Z,99.90
2017-09-23T17:38:41.057Z,99.90
2017-09-23T17:41:09.478Z,99.90
2017-09-23T17:43:37.945Z,99.90
2017-09-23T17:46:06.345Z,99.90
2017-09-23T17:48:35.533Z,99.90
2017-09-23T17:51:05.235Z,99.90
2017-09-23T17:53:34.391Z,99.90
2017-09-23T17:56:03.279Z,99.90
2017-09-23T17:58:32.244Z,99.90
2017-09-23T18:01:02.200Z,99.90
2017-09-23T18:03:31.184Z,99.90
2017-09-23T18:06:00.097Z,99.90
2017-09-23T18:08:29.009Z,99.90
2017-09-23T18:10:58.707Z,99.90
2017-09-23T18:13:29.333Z,99.90
2017-09-23T18:15:58.994Z,99.90
2017-09-23T18:18:27.821Z,99.90
2017-09-23T18:20:57.578Z,99.90
2017-09-23T18:23:26.405Z,99.90
2017-09-23T18:25:56.259Z,99.90
2017-09-23T18:28:25.629Z,99.90
2017-09-23T18:30:54.474Z,99.90
2017-09-23T18:33:23.503Z,99.90
2017-09-23T18:35:52.405Z,99.90
2017-09-23T18:38:21.688Z,99.90
2017-09-23T18:40:50.826Z,99.90
2017-09-23T18:43:21.347Z,99.90
2017-09-23T18:45:50.146Z,99.90
2017-09-23T18:48:21.455Z,99.90
2017-09-23T18:50:50.434Z,99.90
2017-09-23T18:53:20.651Z,99.90
2017-09-23T18:55:49.630Z,99.90
2017-09-23T18:58:20.381Z,99.90
2017-09-23T19:00:49.709Z,99.90
2017-09-23T19:03:18.599Z,99.90
2017-09-23T19:05:47.796Z,99.90
2017-09-23T19:08:17.490Z,99.90
2017-09-23T19:10:46.415Z,99.90
2017-09-23T19:13:18.336Z,99.90
2017-09-23T19:15:47.938Z,99.90
2017-09-23T19:18:17.618Z,99.90
2017-09-23T19:20:48.076Z,99.90
2017-09-23T19:23:18.102Z,99.90
2017-09-23T19:25:46.997Z,99.90
2017-09-23T19:28:16.053Z,99.90
2017-09-23T19:30:45.834Z,99.90
2017-09-23T19:33:14.808Z,99.90
2017-09-23T19:35:44.680Z,99.90
2017-09-23T19:38:13.596Z,99.90
2017-09-23T19:40:43.570Z,99.90
2017-09-23T19:43:15.444Z,99.90
2017-09-23T19:45:44.442Z,99.90
2017-09-23T19:48:13.391Z,99.90
2017-09-23T19:50:42.223Z,99.90
2017-09-23T19:53:11.097Z,99.90
2017-09-23T19:55:40.712Z,99.90
2017-09-23T19:58:11.338Z,99.90
2017-09-23T20:00:41.879Z,99.90
2017-09-23T20:03:10.741Z,99.90
2017-09-23T20:05:40.232Z,99.90
2017-09-23T20:08:09.134Z,99.90
2017-09-23T20:10:38.909Z,99.90
2017-09-23T20:13:08.349Z,99.90
2017-09-23T20:15:37.346Z,99.90
2017-09-23T20:18:07.272Z,99.90
2017-09-23T20:20:36.138Z,99.90
2017-09-23T20:23:05.007Z,99.90
2017-09-23T20:25:34.474Z,99.90
2017-09-23T20:28:04.468Z,99.90
2017-09-23T20:30:34.279Z,99.90
2017-09-23T20:33:04.604Z,99.90
2017-09-23T20:35:34.397Z,99.90
2017-09-23T20:38:03.234Z,99.90
2017-09-23T20:40:32.452Z,99.90
2017-09-23T20:43:02.128Z,99.90
2017-09-23T20:45:31.555Z,99.90
2017-09-23T20:48:00.437Z,99.90
2017-09-23T20:50:29.346Z,99.90
2017-09-23T20:53:00.019Z,99.90
2017-09-23T20:55:29.671Z,99.90
2017-09-23T20:57:58.615Z,99.90
2017-09-23T21:00:27.674Z,99.90
2017-09-23T21:02:56.727Z,99.90
2017-09-23T21:05:25.574Z,99.90
2017-09-23T21:07:55.113Z,99.90
2017-09-23T21:10:23.810Z,99.90
2017-09-23T21:12:53.030Z,99.90
2017-09-23T21:15:21.490Z,99.90
2017-09-23T21:17:49.914Z,99.90
2017-09-23T21:20:40.201Z,99.90
2017-09-23T21:23:12.956Z,99.90
2017-09-23T21:25:58.388Z,99.90
2017-09-23T21:28:32.043Z,99.90
2017-09-23T21:31:00.496Z,99.90
2017-09-23T21:33:29.901Z,99.90
2017-09-23T21:35:59.101Z,99.90
2017-09-23T21:38:27.531Z,99.90
2017-09-23T21:40:56.013Z,99.90
2017-09-23T21:43:24.414Z,99.90
2017-09-23T21:45:52.920Z,99.90
2017-09-23T21:48:21.387Z,99.90
2017-09-23T21:50:49.822Z,99.90
2017-09-23T21:53:18.266Z,99.90
2017-09-23T21:55:46.909Z,99.90
2017-09-23T21:58:15.361Z,99.90
2017-09-23T22:00:44.033Z,99.90
2017-09-23T22:03:13.475Z,99.90
2017-09-23T22:05:41.877Z,99.90
2017-09-23T22:08:10.297Z,99.90
2017-09-23T22:10:39.482Z,99.90
2017-09-23T22:13:07.943Z,99.90
2017-09-23T22:15:36.570Z,99.90
2017-09-23T22:18:04.981Z,99.90
2017-09-23T22:20:33.628Z,99.90
2017-09-23T22:23:02.034Z,99.90
2017-09-23T22:25:30.457Z,99.90
2017-09-23T22:27:58.933Z,99.90
2017-09-23T22:30:27.400Z,99.90
2017-09-23T22:32:55.842Z,99.90
2017-09-23T22:35:24.279Z,99.90
2017-09-23T22:37:52.705Z,99.90
2017-09-23T22:40:21.878Z,99.90
2017-09-23T22:42:50.319Z,99.90
2017-09-23T22:45:18.734Z,99.90
2017-09-23T22:47:47.141Z,99.90
2017-09-23T22:50:16.345Z,99.90
2017-09-23T22:52:44.742Z,99.90
2017-09-23T22:55:13.153Z,99.90
2017-09-23T22:57:41.587Z,99.90
2017-09-23T23:00:10.413Z,99.90
2017-09-23T23:02:38.825Z,99.90
2017-09-23T23:05:07.257Z,99.90
2017-09-23T23:07:35.671Z,99.90
2017-09-23T23:10:04.198Z,99.90
2017-09-23T23:12:33.409Z,99.90
2017-09-23T23:15:01.832Z,99.90
2017-09-23T23:17:30.261Z,99.90
2017-09-23T23:19:59.474Z,99.90
2017-09-23T23:22:27.896Z,99.90
2017-09-23T23:24:56.311Z,99.90
2017-09-23T23:27:24.739Z,99.90
2017-09-23T23:29:53.400Z,99.90
2017-09-23T23:32:21.829Z,99.90
2017-09-23T23:34:50.270Z,99.90
2017-09-23T23:37:18.745Z,99.90
2017-09-23T23:39:47.194Z,99.90
2017-09-23T23:42:15.605Z,99.90
2017-09-23T23:44:44.007Z,99.90
2017-09-23T23:47:12.438Z,99.90
2017-09-23T23:49:40.847Z,99.90
2017-09-23T23:52:09.254Z,99.90
2017-09-23T23:54:37.680Z,99.90
2017-09-23T23:57:06.081Z,99.90
2017-09-23T23:59:35.277Z,99.90
